sensor_id;sensor_type;location;lat;lon;timestamp;temperature;humidity
25825;DHT22;13658;44.534;18.694;2023-11-19T00:00:34;0.90;99.90
25825;DHT22;13658;44.534;18.694;2023-11-19T00:03:01;0.90;99.90
25825;DHT22;13658;44.534;18.694;2023-11-19T00:05:27;0.90;99.90
25825;DHT22;13658;44.534;18.694;2023-11-19T00:07:53;0.90;99.90
25825;DHT22;13658;44.534;18.694;2023-11-19T00:10:19;0.80;99.90
25825;DHT22;13658;44.534;18.694;2023-11-19T00:12:47;0.80;99.90
25825;DHT22;13658;44.534;18.694;2023-11-19T00:15:14;0.60;99.90
25825;DHT22;13658;44.534;18.694;2023-11-19T00:17:41;0.40;99.90
25825;DHT22;13658;44.534;18.694;2023-11-19T00:20:17;0.30;99.90
25825;DHT22;13658;44.534;18.694;2023-11-19T00:22:44;0.20;99.90
25825;DHT22;13658;44.534;18.694;2023-11-19T00:25:12;0.20;99.90
25825;DHT22;13658;44.534;18.694;2023-11-19T00:27:38;0.20;99.90
25825;DHT22;13658;44.534;18.694;2023-11-19T00:30:05;0.20;99.90
25825;DHT22;13658;44.534;18.694;2023-11-19T00:32:33;0.30;99.90
25825;DHT22;13658;44.534;18.694;2023-11-19T00:34:59;0.30;99.90
25825;DHT22;13658;44.534;18.694;2023-11-19T00:37:25;0.30;99.90
25825;DHT22;13658;44.534;18.694;2023-11-19T00:39:52;0.40;99.90
25825;DHT22;13658;44.534;18.694;2023-11-19T00:42:18;0.40;99.90
25825;DHT22;13658;44.534;18.694;2023-11-19T00:44:44;0.40;99.90
25825;DHT22;13658;44.534;18.694;2023-11-19T00:47:12;0.40;99.90
25825;DHT22;13658;44.534;18.694;2023-11-19T00:49:38;0.30;99.90
25825;DHT22;13658;44.534;18.694;2023-11-19T00:52:04;0.30;99.90
25825;DHT22;13658;44.534;18.694;2023-11-19T00:54:30;0.30;99.90
25825;DHT22;13658;44.534;18.694;2023-11-19T00:56:56;0.40;99.90
25825;DHT22;13658;44.534;18.694;2023-11-19T00:59:22;0.40;99.90
25825;DHT22;13658;44.534;18.694;2023-11-19T01:01:48;0.40;99.90
25825;DHT22;13658;44.534;18.694;2023-11-19T01:04:15;0.20;99.90
25825;DHT22;13658;44.534;18.694;2023-11-19T01:06:41;0.00;99.90
25825;DHT22;13658;44.534;18.694;2023-11-19T01:09:08;0.10;99.90
25825;DHT22;13658;44.534;18.694;2023-11-19T01:11:35;0.20;99.90
25825;DHT22;13658;44.534;18.694;2023-11-19T01:14:01;0.30;99.90
25825;DHT22;13658;44.534;18.694;2023-11-19T01:16:27;0.10;99.90
25825;DHT22;13658;44.534;18.694;2023-11-19T01:18:53;-0.10;99.90
25825;DHT22;13658;44.534;18.694;2023-11-19T01:21:19;-0.20;99.90
25825;DHT22;13658;44.534;18.694;2023-11-19T01:23:45;-0.30;99.90
25825;DHT22;13658;44.534;18.694;2023-11-19T01:26:14;-0.30;99.90
25825;DHT22;13658;44.534;18.694;2023-11-19T01:28:40;-0.20;99.90
25825;DHT22;13658;44.534;18.694;2023-11-19T01:31:11;-0.10;99.90
25825;DHT22;13658;44.534;18.694;2023-11-19T01:33:39;-0.30;99.90
25825;DHT22;13658;44.534;18.694;2023-11-19T01:36:06;-0.40;99.90
25825;DHT22;13658;44.534;18.694;2023-11-19T01:38:32;-0.40;99.90
25825;DHT22;13658;44.534;18.694;2023-11-19T01:40:58;-0.40;99.90
25825;DHT22;13658;44.534;18.694;2023-11-19T01:43:34;-0.40;99.90
25825;DHT22;13658;44.534;18.694;2023-11-19T01:46:01;-0.40;99.90
25825;DHT22;13658;44.534;18.694;2023-11-19T01:48:28;-0.30;99.90
25825;DHT22;13658;44.534;18.694;2023-11-19T01:50:55;-0.10;99.90
25825;DHT22;13658;44.534;18.694;2023-11-19T01:53:21;-0.20;99.90
25825;DHT22;13658;44.534;18.694;2023-11-19T01:55:48;-0.20;99.90
25825;DHT22;13658;44.534;18.694;2023-11-19T01:58:14;-0.20;99.90
25825;DHT22;13658;44.534;18.694;2023-11-19T02:00:41;-0.10;99.90
25825;DHT22;13658;44.534;18.694;2023-11-19T02:03:07;-0.10;99.90
25825;DHT22;13658;44.534;18.694;2023-11-19T02:05:34;-0.10;99.90
25825;DHT22;13658;44.534;18.694;2023-11-19T02:08:01;-0.40;99.90
25825;DHT22;13658;44.534;18.694;2023-11-19T02:10:27;-0.40;99.90
25825;DHT22;13658;44.534;18.694;2023-11-19T02:12:53;-0.30;99.90
25825;DHT22;13658;44.534;18.694;2023-11-19T02:15:21;-0.20;99.90
25825;DHT22;13658;44.534;18.694;2023-11-19T02:17:51;-0.20;99.90
25825;DHT22;13658;44.534;18.694;2023-11-19T02:20:17;-0.20;99.90
25825;DHT22;13658;44.534;18.694;2023-11-19T02:22:49;-0.20;99.90
25825;DHT22;13658;44.534;18.694;2023-11-19T02:25:30;-0.30;99.90
25825;DHT22;13658;44.534;18.694;2023-11-19T02:28:02;-0.60;99.90
25825;DHT22;13658;44.534;18.694;2023-11-19T02:30:29;-0.80;99.90
25825;DHT22;13658;44.534;18.694;2023-11-19T02:32:56;-0.70;99.90
25825;DHT22;13658;44.534;18.694;2023-11-19T02:35:24;-0.60;99.90
25825;DHT22;13658;44.534;18.694;2023-11-19T02:37:51;-0.50;99.90
25825;DHT22;13658;44.534;18.694;2023-11-19T02:40:17;-0.50;99.90
25825;DHT22;13658;44.534;18.694;2023-11-19T02:42:44;-0.50;99.90
25825;DHT22;13658;44.534;18.694;2023-11-19T02:45:10;-0.50;99.90
25825;DHT22;13658;44.534;18.694;2023-11-19T02:47:43;-0.70;99.90
25825;DHT22;13658;44.534;18.694;2023-11-19T02:50:13;-0.90;99.90
25825;DHT22;13658;44.534;18.694;2023-11-19T02:52:42;-1.00;99.90
25825;DHT22;13658;44.534;18.694;2023-11-19T02:55:10;-1.10;99.90
25825;DHT22;13658;44.534;18.694;2023-11-19T02:57:39;-0.90;99.90
25825;DHT22;13658;44.534;18.694;2023-11-19T03:00:15;-0.90;99.90
25825;DHT22;13658;44.534;18.694;2023-11-19T03:02:43;-0.90;99.90
25825;DHT22;13658;44.534;18.694;2023-11-19T03:05:13;-0.80;99.90
25825;DHT22;13658;44.534;18.694;2023-11-19T03:07:43;-0.80;99.90
25825;DHT22;13658;44.534;18.694;2023-11-19T03:10:10;-0.80;99.90
25825;DHT22;13658;44.534;18.694;2023-11-19T03:12:43;-0.80;99.90
25825;DHT22;13658;44.534;18.694;2023-11-19T03:15:09;-1.00;99.90
25825;DHT22;13658;44.534;18.694;2023-11-19T03:17:39;-1.10;99.90
25825;DHT22;13658;44.534;18.694;2023-11-19T03:20:07;-1.00;99.90
25825;DHT22;13658;44.534;18.694;2023-11-19T03:22:41;-1.10;99.90
25825;DHT22;13658;44.534;18.694;2023-11-19T03:25:08;-1.20;99.90
25825;DHT22;13658;44.534;18.694;2023-11-19T03:27:37;-1.30;99.90
25825;DHT22;13658;44.534;18.694;2023-11-19T03:30:05;-1.40;99.90
25825;DHT22;13658;44.534;18.694;2023-11-19T03:32:32;-1.50;99.90
25825;DHT22;13658;44.534;18.694;2023-11-19T03:34:58;-1.50;99.90
25825;DHT22;13658;44.534;18.694;2023-11-19T03:37:26;-1.50;99.90
25825;DHT22;13658;44.534;18.694;2023-11-19T03:39:54;-1.30;99.90
25825;DHT22;13658;44.534;18.694;2023-11-19T03:42:21;-1.20;99.90
25825;DHT22;13658;44.534;18.694;2023-11-19T03:44:47;-1.10;99.90
25825;DHT22;13658;44.534;18.694;2023-11-19T03:47:16;-1.10;99.90
25825;DHT22;13658;44.534;18.694;2023-11-19T03:49:42;-1.10;99.90
25825;DHT22;13658;44.534;18.694;2023-11-19T03:52:07;-1.20;99.90
25825;DHT22;13658;44.534;18.694;2023-11-19T03:54:35;-1.30;99.90
25825;DHT22;13658;44.534;18.694;2023-11-19T03:57:01;-1.20;99.90
25825;DHT22;13658;44.534;18.694;2023-11-19T03:59:29;-1.30;99.90
25825;DHT22;13658;44.534;18.694;2023-11-19T04:01:55;-1.40;99.90
25825;DHT22;13658;44.534;18.694;2023-11-19T04:04:22;-1.40;99.90
25825;DHT22;13658;44.534;18.694;2023-11-19T04:06:48;-1.20;99.90
25825;DHT22;13658;44.534;18.694;2023-11-19T04:09:14;-1.30;99.90
25825;DHT22;13658;44.534;18.694;2023-11-19T04:11:40;-1.30;99.90
25825;DHT22;13658;44.534;18.694;2023-11-19T04:14:06;-1.20;99.90
25825;DHT22;13658;44.534;18.694;2023-11-19T04:16:32;-1.10;99.90
25825;DHT22;13658;44.534;18.694;2023-11-19T04:18:58;-1.10;99.90
25825;DHT22;13658;44.534;18.694;2023-11-19T04:21:25;-1.30;99.90
25825;DHT22;13658;44.534;18.694;2023-11-19T04:23:51;-1.30;99.90
25825;DHT22;13658;44.534;18.694;2023-11-19T04:26:17;-1.20;99.90
25825;DHT22;13658;44.534;18.694;2023-11-19T04:28:43;-1.20;99.90
25825;DHT22;13658;44.534;18.694;2023-11-19T04:31:09;-1.30;99.90
25825;DHT22;13658;44.534;18.694;2023-11-19T04:33:35;-1.40;99.90
25825;DHT22;13658;44.534;18.694;2023-11-19T04:36:01;-1.40;99.90
25825;DHT22;13658;44.534;18.694;2023-11-19T04:38:28;-1.60;99.90
25825;DHT22;13658;44.534;18.694;2023-11-19T04:40:54;-1.70;99.90
25825;DHT22;13658;44.534;18.694;2023-11-19T04:43:19;-1.70;99.90
25825;DHT22;13658;44.534;18.694;2023-11-19T04:45:45;-1.70;99.90
25825;DHT22;13658;44.534;18.694;2023-11-19T04:48:11;-1.70;99.90
25825;DHT22;13658;44.534;18.694;2023-11-19T04:50:38;-1.90;99.90
25825;DHT22;13658;44.534;18.694;2023-11-19T04:53:04;-1.90;99.90
25825;DHT22;13658;44.534;18.694;2023-11-19T04:55:30;-2.00;99.90
25825;DHT22;13658;44.534;18.694;2023-11-19T04:57:56;-2.00;99.90
25825;DHT22;13658;44.534;18.694;2023-11-19T05:00:22;-2.00;99.90
25825;DHT22;13658;44.534;18.694;2023-11-19T05:02:48;-1.80;99.90
25825;DHT22;13658;44.534;18.694;2023-11-19T05:05:15;-1.70;99.90
25825;DHT22;13658;44.534;18.694;2023-11-19T05:07:43;-1.60;99.90
25825;DHT22;13658;44.534;18.694;2023-11-19T05:10:09;-1.60;99.90
25825;DHT22;13658;44.534;18.694;2023-11-19T05:12:35;-1.50;99.90
25825;DHT22;13658;44.534;18.694;2023-11-19T05:15:01;-1.60;99.90
25825;DHT22;13658;44.534;18.694;2023-11-19T05:17:27;-1.60;99.90
25825;DHT22;13658;44.534;18.694;2023-11-19T05:19:53;-1.70;99.90
25825;DHT22;13658;44.534;18.694;2023-11-19T05:22:19;-1.90;99.90
25825;DHT22;13658;44.534;18.694;2023-11-19T05:24:46;-1.90;99.90
25825;DHT22;13658;44.534;18.694;2023-11-19T05:27:14;-1.90;99.90
25825;DHT22;13658;44.534;18.694;2023-11-19T05:29:40;-1.90;99.90
25825;DHT22;13658;44.534;18.694;2023-11-19T05:32:07;-2.00;99.90
25825;DHT22;13658;44.534;18.694;2023-11-19T05:34:33;-2.00;99.90
25825;DHT22;13658;44.534;18.694;2023-11-19T05:36:59;-2.10;99.90
25825;DHT22;13658;44.534;18.694;2023-11-19T05:39:25;-2.10;99.90
25825;DHT22;13658;44.534;18.694;2023-11-19T05:41:51;-2.10;99.90
25825;DHT22;13658;44.534;18.694;2023-11-19T05:44:17;-2.10;99.90
25825;DHT22;13658;44.534;18.694;2023-11-19T05:46:44;-2.10;99.90
25825;DHT22;13658;44.534;18.694;2023-11-19T05:49:11;-2.10;99.90
25825;DHT22;13658;44.534;18.694;2023-11-19T05:51:38;-2.10;99.90
25825;DHT22;13658;44.534;18.694;2023-11-19T05:54:08;-2.00;99.90
25825;DHT22;13658;44.534;18.694;2023-11-19T05:56:35;-2.00;99.90
25825;DHT22;13658;44.534;18.694;2023-11-19T05:59:01;-1.90;99.90
25825;DHT22;13658;44.534;18.694;2023-11-19T06:01:29;-1.70;99.90
25825;DHT22;13658;44.534;18.694;2023-11-19T06:03:55;-1.70;99.90
25825;DHT22;13658;44.534;18.694;2023-11-19T06:06:21;-1.70;99.90
25825;DHT22;13658;44.534;18.694;2023-11-19T06:08:47;-1.60;99.90
25825;DHT22;13658;44.534;18.694;2023-11-19T06:11:13;-1.50;99.90
25825;DHT22;13658;44.534;18.694;2023-11-19T06:13:44;-1.40;99.90
25825;DHT22;13658;44.534;18.694;2023-11-19T06:16:10;-1.40;99.90
25825;DHT22;13658;44.534;18.694;2023-11-19T06:18:36;-1.40;99.90
25825;DHT22;13658;44.534;18.694;2023-11-19T06:21:03;-1.40;99.90
25825;DHT22;13658;44.534;18.694;2023-11-19T06:23:29;-1.40;99.90
25825;DHT22;13658;44.534;18.694;2023-11-19T06:25:55;-1.30;99.90
25825;DHT22;13658;44.534;18.694;2023-11-19T06:28:21;-1.20;99.90
25825;DHT22;13658;44.534;18.694;2023-11-19T06:30:46;-1.10;99.90
25825;DHT22;13658;44.534;18.694;2023-11-19T06:33:13;-0.80;99.90
25825;DHT22;13658;44.534;18.694;2023-11-19T06:35:39;-0.60;99.90
25825;DHT22;13658;44.534;18.694;2023-11-19T06:38:05;-0.50;99.90
25825;DHT22;13658;44.534;18.694;2023-11-19T06:40:32;-0.40;99.90
25825;DHT22;13658;44.534;18.694;2023-11-19T06:42:59;-0.30;99.90
25825;DHT22;13658;44.534;18.694;2023-11-19T06:45:25;-0.20;99.90
25825;DHT22;13658;44.534;18.694;2023-11-19T06:47:51;0.00;99.90
25825;DHT22;13658;44.534;18.694;2023-11-19T06:50:17;0.20;99.90
25825;DHT22;13658;44.534;18.694;2023-11-19T06:52:43;0.10;99.90
25825;DHT22;13658;44.534;18.694;2023-11-19T06:55:09;0.00;99.90
25825;DHT22;13658;44.534;18.694;2023-11-19T06:57:35;0.10;99.90
25825;DHT22;13658;44.534;18.694;2023-11-19T07:00:01;0.20;99.90
25825;DHT22;13658;44.534;18.694;2023-11-19T07:02:27;0.30;99.90
25825;DHT22;13658;44.534;18.694;2023-11-19T07:04:53;0.30;99.90
25825;DHT22;13658;44.534;18.694;2023-11-19T07:07:20;0.70;99.90
25825;DHT22;13658;44.534;18.694;2023-11-19T07:09:46;0.70;99.90
25825;DHT22;13658;44.534;18.694;2023-11-19T07:12:12;0.70;99.90
25825;DHT22;13658;44.534;18.694;2023-11-19T07:14:39;0.70;99.90
25825;DHT22;13658;44.534;18.694;2023-11-19T07:17:05;0.60;99.90
25825;DHT22;13658;44.534;18.694;2023-11-19T07:19:31;0.60;99.90
25825;DHT22;13658;44.534;18.694;2023-11-19T07:21:57;0.50;99.90
25825;DHT22;13658;44.534;18.694;2023-11-19T07:24:23;0.60;99.90
25825;DHT22;13658;44.534;18.694;2023-11-19T07:26:50;0.60;99.90
25825;DHT22;13658;44.534;18.694;2023-11-19T07:29:16;0.80;99.90
25825;DHT22;13658;44.534;18.694;2023-11-19T07:31:42;0.90;99.90
25825;DHT22;13658;44.534;18.694;2023-11-19T07:34:10;1.00;99.90
25825;DHT22;13658;44.534;18.694;2023-11-19T07:36:37;1.10;99.90
25825;DHT22;13658;44.534;18.694;2023-11-19T07:39:04;1.30;99.90
25825;DHT22;13658;44.534;18.694;2023-11-19T07:41:31;1.50;99.90
25825;DHT22;13658;44.534;18.694;2023-11-19T07:43:57;1.70;99.90
25825;DHT22;13658;44.534;18.694;2023-11-19T07:46:23;1.90;99.90
25825;DHT22;13658;44.534;18.694;2023-11-19T07:48:51;2.00;99.90
25825;DHT22;13658;44.534;18.694;2023-11-19T07:51:17;2.10;99.90
25825;DHT22;13658;44.534;18.694;2023-11-19T07:53:43;2.20;99.90
25825;DHT22;13658;44.534;18.694;2023-11-19T07:56:10;2.30;99.90
25825;DHT22;13658;44.534;18.694;2023-11-19T07:58:36;2.40;99.90
25825;DHT22;13658;44.534;18.694;2023-11-19T08:01:02;2.50;99.90
25825;DHT22;13658;44.534;18.694;2023-11-19T08:03:28;2.50;99.90
25825;DHT22;13658;44.534;18.694;2023-11-19T08:05:58;2.50;99.90
25825;DHT22;13658;44.534;18.694;2023-11-19T08:08:24;2.50;99.90
25825;DHT22;13658;44.534;18.694;2023-11-19T08:10:50;2.60;99.90
25825;DHT22;13658;44.534;18.694;2023-11-19T08:13:20;2.80;99.90
25825;DHT22;13658;44.534;18.694;2023-11-19T08:15:46;2.90;99.90
25825;DHT22;13658;44.534;18.694;2023-11-19T08:18:12;3.00;99.90
25825;DHT22;13658;44.534;18.694;2023-11-19T08:20:39;3.30;99.90
25825;DHT22;13658;44.534;18.694;2023-11-19T08:23:05;3.80;99.90
25825;DHT22;13658;44.534;18.694;2023-11-19T08:25:31;4.00;99.90
25825;DHT22;13658;44.534;18.694;2023-11-19T08:27:59;3.80;99.90
25825;DHT22;13658;44.534;18.694;2023-11-19T08:30:26;4.10;99.90
25825;DHT22;13658;44.534;18.694;2023-11-19T08:32:52;4.40;99.90
25825;DHT22;13658;44.534;18.694;2023-11-19T08:35:18;4.50;99.90
25825;DHT22;13658;44.534;18.694;2023-11-19T08:37:44;4.70;99.90
25825;DHT22;13658;44.534;18.694;2023-11-19T08:40:12;4.80;99.90
25825;DHT22;13658;44.534;18.694;2023-11-19T08:42:41;5.10;99.90
25825;DHT22;13658;44.534;18.694;2023-11-19T08:45:08;5.40;99.90
25825;DHT22;13658;44.534;18.694;2023-11-19T08:47:36;5.80;99.90
25825;DHT22;13658;44.534;18.694;2023-11-19T08:50:03;5.80;99.90
25825;DHT22;13658;44.534;18.694;2023-11-19T08:52:30;5.50;99.90
25825;DHT22;13658;44.534;18.694;2023-11-19T08:54:56;5.30;99.90
25825;DHT22;13658;44.534;18.694;2023-11-19T08:57:22;5.60;99.90
25825;DHT22;13658;44.534;18.694;2023-11-19T08:59:48;5.60;99.90
25825;DHT22;13658;44.534;18.694;2023-11-19T09:02:14;5.50;99.90
25825;DHT22;13658;44.534;18.694;2023-11-19T09:04:41;5.40;99.90
25825;DHT22;13658;44.534;18.694;2023-11-19T09:07:07;5.40;99.90
25825;DHT22;13658;44.534;18.694;2023-11-19T09:09:35;5.40;99.90
25825;DHT22;13658;44.534;18.694;2023-11-19T09:12:02;5.40;99.90
25825;DHT22;13658;44.534;18.694;2023-11-19T09:14:29;5.40;99.90
25825;DHT22;13658;44.534;18.694;2023-11-19T09:16:56;5.60;99.90
25825;DHT22;13658;44.534;18.694;2023-11-19T09:19:23;5.70;99.90
25825;DHT22;13658;44.534;18.694;2023-11-19T09:21:49;5.80;99.90
25825;DHT22;13658;44.534;18.694;2023-11-19T09:24:15;6.00;99.90
25825;DHT22;13658;44.534;18.694;2023-11-19T09:26:41;6.30;99.90
25825;DHT22;13658;44.534;18.694;2023-11-19T09:29:08;6.40;99.90
25825;DHT22;13658;44.534;18.694;2023-11-19T09:31:34;6.40;99.90
25825;DHT22;13658;44.534;18.694;2023-11-19T09:34:00;6.40;99.90
25825;DHT22;13658;44.534;18.694;2023-11-19T09:36:26;6.60;99.90
25825;DHT22;13658;44.534;18.694;2023-11-19T09:38:52;6.60;99.90
25825;DHT22;13658;44.534;18.694;2023-11-19T09:41:18;6.80;99.90
25825;DHT22;13658;44.534;18.694;2023-11-19T09:43:45;7.00;99.90
25825;DHT22;13658;44.534;18.694;2023-11-19T09:46:13;6.90;99.90
25825;DHT22;13658;44.534;18.694;2023-11-19T09:48:41;6.80;99.90
25825;DHT22;13658;44.534;18.694;2023-11-19T09:51:09;6.90;99.90
25825;DHT22;13658;44.534;18.694;2023-11-19T09:53:36;7.20;99.90
25825;DHT22;13658;44.534;18.694;2023-11-19T09:56:06;7.30;99.90
25825;DHT22;13658;44.534;18.694;2023-11-19T09:58:35;7.70;99.90
25825;DHT22;13658;44.534;18.694;2023-11-19T10:01:01;8.20;99.90
25825;DHT22;13658;44.534;18.694;2023-11-19T10:03:34;8.40;99.90
25825;DHT22;13658;44.534;18.694;2023-11-19T10:06:10;9.00;99.90
25825;DHT22;13658;44.534;18.694;2023-11-19T10:08:40;9.10;99.90
25825;DHT22;13658;44.534;18.694;2023-11-19T10:11:07;10.00;99.90
25825;DHT22;13658;44.534;18.694;2023-11-19T10:13:36;10.20;99.90
25825;DHT22;13658;44.534;18.694;2023-11-19T10:16:12;10.30;99.90
25825;DHT22;13658;44.534;18.694;2023-11-19T10:18:46;10.00;99.90
25825;DHT22;13658;44.534;18.694;2023-11-19T10:21:13;10.40;99.90
25825;DHT22;13658;44.534;18.694;2023-11-19T10:23:55;11.10;99.90
25825;DHT22;13658;44.534;18.694;2023-11-19T10:26:31;11.40;99.90
25825;DHT22;13658;44.534;18.694;2023-11-19T10:28:59;11.70;99.90
25825;DHT22;13658;44.534;18.694;2023-11-19T10:31:25;11.30;99.90
25825;DHT22;13658;44.534;18.694;2023-11-19T10:33:52;11.70;99.90
25825;DHT22;13658;44.534;18.694;2023-11-19T10:36:18;11.90;99.90
25825;DHT22;13658;44.534;18.694;2023-11-19T10:38:52;12.40;99.90
25825;DHT22;13658;44.534;18.694;2023-11-19T10:41:29;13.00;99.90
25825;DHT22;13658;44.534;18.694;2023-11-19T10:43:56;13.40;99.90
25825;DHT22;13658;44.534;18.694;2023-11-19T10:46:22;12.40;99.90
25825;DHT22;13658;44.534;18.694;2023-11-19T10:48:49;11.80;99.90
25825;DHT22;13658;44.534;18.694;2023-11-19T10:51:19;11.40;99.90
25825;DHT22;13658;44.534;18.694;2023-11-19T10:53:49;10.90;99.90
25825;DHT22;13658;44.534;18.694;2023-11-19T10:56:20;10.40;99.90
25825;DHT22;13658;44.534;18.694;2023-11-19T10:58:50;10.40;99.90
25825;DHT22;13658;44.534;18.694;2023-11-19T11:01:20;10.60;99.90
25825;DHT22;13658;44.534;18.694;2023-11-19T11:03:51;11.00;99.90
25825;DHT22;13658;44.534;18.694;2023-11-19T11:06:18;10.90;99.90
25825;DHT22;13658;44.534;18.694;2023-11-19T11:08:46;11.00;99.90
25825;DHT22;13658;44.534;18.694;2023-11-19T11:11:15;10.90;99.90
25825;DHT22;13658;44.534;18.694;2023-11-19T11:13:47;10.50;99.90
25825;DHT22;13658;44.534;18.694;2023-11-19T11:16:18;10.60;99.90
25825;DHT22;13658;44.534;18.694;2023-11-19T11:18:46;10.80;99.90
25825;DHT22;13658;44.534;18.694;2023-11-19T11:21:16;10.80;99.90
25825;DHT22;13658;44.534;18.694;2023-11-19T11:29:31;10.40;99.90
25825;DHT22;13658;44.534;18.694;2023-11-19T11:34:53;10.20;99.90
25825;DHT22;13658;44.534;18.694;2023-11-19T11:37:32;10.10;99.90
25825;DHT22;13658;44.534;18.694;2023-11-19T11:39:58;10.00;99.90
25825;DHT22;13658;44.534;18.694;2023-11-19T11:45:13;10.20;99.90
25825;DHT22;13658;44.534;18.694;2023-11-19T11:50:10;10.30;99.90
25825;DHT22;13658;44.534;18.694;2023-11-19T11:55:29;10.30;99.90
25825;DHT22;13658;44.534;18.694;2023-11-19T11:57:59;10.30;99.90
25825;DHT22;13658;44.534;18.694;2023-11-19T12:00:39;10.20;99.90
25825;DHT22;13658;44.534;18.694;2023-11-19T12:03:06;10.20;99.90
25825;DHT22;13658;44.534;18.694;2023-11-19T12:05:33;10.40;99.90
25825;DHT22;13658;44.534;18.694;2023-11-19T12:08:05;10.40;99.90
25825;DHT22;13658;44.534;18.694;2023-11-19T12:10:46;10.40;99.90
25825;DHT22;13658;44.534;18.694;2023-11-19T12:13:13;10.60;99.90
25825;DHT22;13658;44.534;18.694;2023-11-19T12:18:27;10.70;99.90
25825;DHT22;13658;44.534;18.694;2023-11-19T12:20:54;10.70;99.90
25825;DHT22;13658;44.534;18.694;2023-11-19T12:23:21;10.80;99.90
25825;DHT22;13658;44.534;18.694;2023-11-19T12:25:47;11.00;99.90
25825;DHT22;13658;44.534;18.694;2023-11-19T12:28:14;11.20;99.90
25825;DHT22;13658;44.534;18.694;2023-11-19T12:30:42;11.30;99.90
25825;DHT22;13658;44.534;18.694;2023-11-19T12:33:08;11.30;99.90
25825;DHT22;13658;44.534;18.694;2023-11-19T12:35:45;11.40;99.90
25825;DHT22;13658;44.534;18.694;2023-11-19T12:38:21;11.50;99.90
25825;DHT22;13658;44.534;18.694;2023-11-19T12:40:47;11.40;99.90
25825;DHT22;13658;44.534;18.694;2023-11-19T12:43:22;11.40;99.90
25825;DHT22;13658;44.534;18.694;2023-11-19T12:45:48;11.50;99.90
25825;DHT22;13658;44.534;18.694;2023-11-19T12:48:14;11.60;99.90
25825;DHT22;13658;44.534;18.694;2023-11-19T12:50:57;11.60;99.90
25825;DHT22;13658;44.534;18.694;2023-11-19T12:53:25;11.60;99.90
25825;DHT22;13658;44.534;18.694;2023-11-19T12:55:52;11.70;99.90
25825;DHT22;13658;44.534;18.694;2023-11-19T13:01:06;11.80;99.90
25825;DHT22;13658;44.534;18.694;2023-11-19T13:03:34;11.70;99.90
25825;DHT22;13658;44.534;18.694;2023-11-19T13:11:06;11.60;99.90
25825;DHT22;13658;44.534;18.694;2023-11-19T13:13:55;11.50;99.90
25825;DHT22;13658;44.534;18.694;2023-11-19T13:16:21;11.50;99.90
25825;DHT22;13658;44.534;18.694;2023-11-19T13:18:47;11.40;99.90
25825;DHT22;13658;44.534;18.694;2023-11-19T13:21:13;11.40;99.90
25825;DHT22;13658;44.534;18.694;2023-11-19T13:23:39;11.30;99.90
25825;DHT22;13658;44.534;18.694;2023-11-19T13:26:05;11.30;99.90
25825;DHT22;13658;44.534;18.694;2023-11-19T13:28:31;11.30;99.90
25825;DHT22;13658;44.534;18.694;2023-11-19T13:30:57;11.30;99.90
25825;DHT22;13658;44.534;18.694;2023-11-19T13:33:23;11.20;99.90
25825;DHT22;13658;44.534;18.694;2023-11-19T13:35:49;11.20;99.90
25825;DHT22;13658;44.534;18.694;2023-11-19T13:38:15;11.20;99.90
25825;DHT22;13658;44.534;18.694;2023-11-19T13:40:41;11.10;99.90
25825;DHT22;13658;44.534;18.694;2023-11-19T13:43:07;11.10;99.90
25825;DHT22;13658;44.534;18.694;2023-11-19T13:45:33;11.10;99.90
25825;DHT22;13658;44.534;18.694;2023-11-19T13:47:59;11.00;99.90
25825;DHT22;13658;44.534;18.694;2023-11-19T13:50:25;11.00;99.90
25825;DHT22;13658;44.534;18.694;2023-11-19T13:52:51;10.90;99.90
25825;DHT22;13658;44.534;18.694;2023-11-19T13:55:17;10.90;99.90
25825;DHT22;13658;44.534;18.694;2023-11-19T13:57:43;10.90;99.90
25825;DHT22;13658;44.534;18.694;2023-11-19T14:00:11;10.80;99.90
25825;DHT22;13658;44.534;18.694;2023-11-19T14:02:42;10.80;99.90
25825;DHT22;13658;44.534;18.694;2023-11-19T14:05:11;10.80;99.90
25825;DHT22;13658;44.534;18.694;2023-11-19T14:07:40;10.70;99.90
25825;DHT22;13658;44.534;18.694;2023-11-19T14:10:07;10.70;99.90
25825;DHT22;13658;44.534;18.694;2023-11-19T14:12:41;10.60;99.90
25825;DHT22;13658;44.534;18.694;2023-11-19T14:15:08;10.70;99.90
25825;DHT22;13658;44.534;18.694;2023-11-19T14:17:36;10.70;99.90
25825;DHT22;13658;44.534;18.694;2023-11-19T14:20:02;10.60;99.90
25825;DHT22;13658;44.534;18.694;2023-11-19T14:22:42;10.60;99.90
25825;DHT22;13658;44.534;18.694;2023-11-19T14:25:09;10.60;99.90
25825;DHT22;13658;44.534;18.694;2023-11-19T14:27:40;10.50;99.90
25825;DHT22;13658;44.534;18.694;2023-11-19T14:30:08;10.40;99.90
25825;DHT22;13658;44.534;18.694;2023-11-19T14:32:38;10.30;99.90
25825;DHT22;13658;44.534;18.694;2023-11-19T14:35:05;10.20;99.90
25825;DHT22;13658;44.534;18.694;2023-11-19T14:37:31;10.10;99.90
25825;DHT22;13658;44.534;18.694;2023-11-19T14:39:57;9.90;99.90
25825;DHT22;13658;44.534;18.694;2023-11-19T14:42:30;9.90;99.90
25825;DHT22;13658;44.534;18.694;2023-11-19T14:44:59;9.90;99.90
25825;DHT22;13658;44.534;18.694;2023-11-19T14:47:25;9.80;99.90
25825;DHT22;13658;44.534;18.694;2023-11-19T14:49:51;9.70;99.90
25825;DHT22;13658;44.534;18.694;2023-11-19T14:52:17;9.60;99.90
25825;DHT22;13658;44.534;18.694;2023-11-19T14:54:43;9.40;99.90
25825;DHT22;13658;44.534;18.694;2023-11-19T14:57:09;9.20;99.90
25825;DHT22;13658;44.534;18.694;2023-11-19T14:59:39;9.10;99.90
25825;DHT22;13658;44.534;18.694;2023-11-19T15:02:07;9.00;99.90
25825;DHT22;13658;44.534;18.694;2023-11-19T15:04:33;8.90;99.90
25825;DHT22;13658;44.534;18.694;2023-11-19T15:07:00;8.90;99.90
25825;DHT22;13658;44.534;18.694;2023-11-19T15:09:26;8.80;99.90
25825;DHT22;13658;44.534;18.694;2023-11-19T15:11:55;8.70;99.90
25825;DHT22;13658;44.534;18.694;2023-11-19T15:14:23;8.60;99.90
25825;DHT22;13658;44.534;18.694;2023-11-19T15:16:49;8.30;99.90
25825;DHT22;13658;44.534;18.694;2023-11-19T15:19:17;8.30;99.90
25825;DHT22;13658;44.534;18.694;2023-11-19T15:21:43;8.20;99.90
25825;DHT22;13658;44.534;18.694;2023-11-19T15:24:09;8.10;99.90
25825;DHT22;13658;44.534;18.694;2023-11-19T15:26:37;8.10;99.90
25825;DHT22;13658;44.534;18.694;2023-11-19T15:29:03;8.00;99.90
25825;DHT22;13658;44.534;18.694;2023-11-19T15:31:29;8.10;99.90
25825;DHT22;13658;44.534;18.694;2023-11-19T15:33:56;8.10;99.90
25825;DHT22;13658;44.534;18.694;2023-11-19T15:36:22;8.00;99.90
25825;DHT22;13658;44.534;18.694;2023-11-19T15:38:48;7.90;99.90
25825;DHT22;13658;44.534;18.694;2023-11-19T15:41:14;7.70;99.90
25825;DHT22;13658;44.534;18.694;2023-11-19T15:43:40;7.70;99.90
25825;DHT22;13658;44.534;18.694;2023-11-19T15:46:10;7.60;99.90
25825;DHT22;13658;44.534;18.694;2023-11-19T15:48:36;7.50;99.90
25825;DHT22;13658;44.534;18.694;2023-11-19T15:51:03;7.40;99.90